createdAt,value
2023-01-28T00:00:51.164Z,50.48
2023-01-28T00:03:17.923Z,50.63
2023-01-28T00:05:44.455Z,51.51
2023-01-28T00:08:11.591Z,51.20
2023-01-28T00:10:40.973Z,51.33
2023-01-28T00:13:07.934Z,50.82
2023-01-28T00:15:34.783Z,51.00
2023-01-28T00:18:01.416Z,51.48
2023-01-28T00:20:27.952Z,51.66
2023-01-28T00:22:54.460Z,50.25
2023-01-28T00:25:21.068Z,50.49
2023-01-28T00:27:47.582Z,50.69
2023-01-28T00:30:14.411Z,50.81
2023-01-28T00:32:42.487Z,50.83
2023-01-28T00:35:09.975Z,50.45
2023-01-28T00:37:37.800Z,50.61
2023-01-28T00:40:04.614Z,50.11
2023-01-28T00:42:31.377Z,49.90
2023-01-28T00:44:57.874Z,49.78
2023-01-28T00:47:24.423Z,50.40
2023-01-28T00:49:50.935Z,50.04
2023-01-28T00:52:17.547Z,50.16
2023-01-28T00:54:44.277Z,49.97
2023-01-28T00:57:10.731Z,49.26
2023-01-28T00:59:37.250Z,49.22
2023-01-28T01:02:12.601Z,50.31
2023-01-28T01:04:40.462Z,49.33
2023-01-28T01:07:07.148Z,48.96
2023-01-28T01:09:33.693Z,48.48
2023-01-28T01:12:00.744Z,49.12
2023-01-28T01:14:27.270Z,49.14
2023-01-28T01:16:53.923Z,49.76
2023-01-28T01:19:20.501Z,49.81
2023-01-28T01:21:50.530Z,49.38
2023-01-28T01:24:17.626Z,49.65
2023-01-28T01:26:44.222Z,49.28
2023-01-28T01:29:10.865Z,49.16
2023-01-28T01:31:37.435Z,49.29
2023-01-28T01:34:03.995Z,48.64
2023-01-28T01:36:31.253Z,48.97
2023-01-28T01:38:58.138Z,48.56
2023-01-28T01:41:30.462Z,48.09
2023-01-28T01:44:02.365Z,48.14
2023-01-28T01:46:34.676Z,48.62
2023-01-28T01:49:08.925Z,48.71
2023-01-28T01:51:36.191Z,48.47
2023-01-28T01:54:02.890Z,48.94
2023-01-28T01:56:34.428Z,48.78
2023-01-28T01:59:01.538Z,48.56
2023-01-28T02:01:30.769Z,48.68
2023-01-28T02:04:03.436Z,48.33
2023-01-28T02:06:30.908Z,48.18
2023-01-28T02:08:57.845Z,47.85
2023-01-28T02:11:27.291Z,47.99
2023-01-28T02:13:57.096Z,47.92
2023-01-28T02:16:24.782Z,47.75
2023-01-28T02:18:51.408Z,48.40
2023-01-28T02:21:29.806Z,48.14
2023-01-28T02:24:31.692Z,48.23
2023-01-28T02:27:10.333Z,48.38
2023-01-28T02:29:42.986Z,48.40
2023-01-28T02:32:35.578Z,48.33
2023-01-28T02:35:05.995Z,48.13
2023-01-28T02:37:44.361Z,47.85
2023-01-28T02:40:20.006Z,47.79
2023-01-28T02:42:46.735Z,48.13
2023-01-28T02:45:46.499Z,47.82
2023-01-28T02:48:13.604Z,47.79
2023-01-28T02:51:09.913Z,47.70
2023-01-28T02:53:51.196Z,47.17
2023-01-28T02:56:59.266Z,48.02
2023-01-28T02:59:44.208Z,47.29
2023-01-28T03:02:21.786Z,47.59
2023-01-28T03:05:03.792Z,48.00
2023-01-28T03:07:32.519Z,47.99
2023-01-28T03:10:04.197Z,48.47
2023-01-28T03:12:50.858Z,48.40
2023-01-28T03:15:38.306Z,47.89
2023-01-28T03:18:28.896Z,48.32
2023-01-28T03:21:22.047Z,47.94
2023-01-28T03:24:13.628Z,48.03
2023-01-28T03:27:14.033Z,47.91
2023-01-28T03:30:01.022Z,47.83
2023-01-28T03:32:46.224Z,47.63
2023-01-28T03:35:34.040Z,47.83
2023-01-28T03:38:01.972Z,47.68
2023-01-28T03:40:28.504Z,47.94
2023-01-28T03:42:56.788Z,48.08
2023-01-28T03:45:23.241Z,47.85
2023-01-28T03:47:49.707Z,48.19
2023-01-28T03:50:16.444Z,48.36
2023-01-28T03:52:42.970Z,48.51
2023-01-28T03:55:14.680Z,48.53
2023-01-28T03:57:41.583Z,48.59
2023-01-28T04:00:10.523Z,48.47
2023-01-28T04:02:40.124Z,48.64
2023-01-28T04:05:13.901Z,48.33
2023-01-28T04:07:40.601Z,48.24
2023-01-28T04:10:08.735Z,48.20
2023-01-28T04:12:37.820Z,47.79
2023-01-28T04:15:15.717Z,48.67
2023-01-28T04:17:46.840Z,48.50
2023-01-28T04:20:14.059Z,49.36
2023-01-28T04:22:41.141Z,49.44
2023-01-28T04:25:08.325Z,48.40
2023-01-28T04:27:34.776Z,48.37
2023-01-28T04:30:01.260Z,48.01
2023-01-28T04:32:27.753Z,48.33
2023-01-28T04:34:54.237Z,48.25
2023-01-28T04:37:21.101Z,47.91
2023-01-28T04:39:47.591Z,47.95
2023-01-28T04:42:14.372Z,47.44
2023-01-28T04:44:40.927Z,47.46
2023-01-28T04:47:07.436Z,47.21
2023-01-28T04:49:34.001Z,47.10
2023-01-28T04:52:00.465Z,47.29
2023-01-28T04:54:27.367Z,47.12
2023-01-28T04:56:53.830Z,47.14
2023-01-28T04:59:20.292Z,46.91
2023-01-28T05:01:46.804Z,47.69
2023-01-28T05:04:13.309Z,47.66
2023-01-28T05:06:40.079Z,47.56
2023-01-28T05:09:06.636Z,47.10
2023-01-28T05:11:33.178Z,46.75
2023-01-28T05:13:59.707Z,47.22
2023-01-28T05:16:26.218Z,46.76
2023-01-28T05:18:52.693Z,47.17
2023-01-28T05:21:19.249Z,46.47
2023-01-28T05:23:45.762Z,46.72
2023-01-28T05:26:12.807Z,46.99
2023-01-28T05:28:39.334Z,47.14
2023-01-28T05:31:06.898Z,47.27
2023-01-28T05:33:33.595Z,47.18
2023-01-28T05:36:00.094Z,47.00
2023-01-28T05:38:26.946Z,47.23
2023-01-28T05:40:53.472Z,46.73
2023-01-28T05:43:19.992Z,46.53
2023-01-28T05:45:47.791Z,46.84
2023-01-28T05:48:14.655Z,47.01
2023-01-28T05:50:41.208Z,46.81
2023-01-28T05:53:08.019Z,46.33
2023-01-28T05:55:34.771Z,46.87
2023-01-28T05:58:01.299Z,46.60
2023-01-28T06:00:27.857Z,46.93
2023-01-28T06:02:54.628Z,46.47
2023-01-28T06:05:21.328Z,45.94
2023-01-28T06:07:48.379Z,46.18
2023-01-28T06:10:17.998Z,46.34
2023-01-28T06:12:44.706Z,46.03
2023-01-28T06:15:11.571Z,46.81
2023-01-28T06:17:38.377Z,46.56
2023-01-28T06:20:05.447Z,46.04
2023-01-28T06:22:31.967Z,45.99
2023-01-28T06:24:58.429Z,45.86
2023-01-28T06:27:24.919Z,45.78
2023-01-28T06:29:51.429Z,46.09
2023-01-28T06:32:17.920Z,45.92
2023-01-28T06:34:44.410Z,45.57
2023-01-28T06:37:14.913Z,46.11
2023-01-28T06:39:41.448Z,45.53
2023-01-28T06:42:08.040Z,45.60
2023-01-28T06:44:34.525Z,45.60
2023-01-28T06:47:01.076Z,45.54
2023-01-28T06:49:27.604Z,45.70
2023-01-28T06:51:54.134Z,45.35
2023-01-28T06:54:21.161Z,45.53
2023-01-28T06:56:47.862Z,45.20
2023-01-28T06:59:14.363Z,45.14
2023-01-28T07:01:40.820Z,45.21
2023-01-28T07:04:07.395Z,44.71
2023-01-28T07:06:33.893Z,44.98
2023-01-28T07:09:00.675Z,44.76
2023-01-28T07:11:27.155Z,45.50
2023-01-28T07:13:53.583Z,45.63
2023-01-28T07:16:20.095Z,45.21
2023-01-28T07:18:46.600Z,44.98
2023-01-28T07:21:13.102Z,45.57
2023-01-28T07:23:39.988Z,45.79
2023-01-28T07:26:06.622Z,45.54
2023-01-28T07:28:33.144Z,45.62
2023-01-28T07:30:59.960Z,45.87
2023-01-28T07:33:26.527Z,45.82
2023-01-28T07:35:53.075Z,45.93
2023-01-28T07:38:19.596Z,46.74
2023-01-28T07:40:46.455Z,46.22
2023-01-28T07:43:13.021Z,46.23
2023-01-28T07:45:39.645Z,45.95
2023-01-28T07:48:08.190Z,45.88
2023-01-28T07:50:36.651Z,45.81
2023-01-28T07:53:05.165Z,45.79
2023-01-28T07:55:32.050Z,45.22
2023-01-28T07:57:59.894Z,45.32
2023-01-28T08:00:29.107Z,45.34
2023-01-28T08:03:04.309Z,45.21
2023-01-28T08:05:39.621Z,45.46
2023-01-28T08:08:06.131Z,45.04
2023-01-28T08:10:32.667Z,45.10
2023-01-28T08:12:59.423Z,44.54
2023-01-28T08:15:26.238Z,44.71
2023-01-28T08:17:57.822Z,44.63
2023-01-28T08:20:25.890Z,45.47
2023-01-28T08:22:52.414Z,45.11
2023-01-28T08:25:19.191Z,45.12
2023-01-28T08:27:45.894Z,44.49
2023-01-28T08:30:12.960Z,44.17
2023-01-28T08:32:39.918Z,44.42
2023-01-28T08:35:07.806Z,43.92
2023-01-28T08:37:34.362Z,44.49
2023-01-28T08:40:01.072Z,43.90
2023-01-28T08:42:27.529Z,44.20
2023-01-28T08:44:54.032Z,44.18
2023-01-28T08:47:20.537Z,43.85
2023-01-28T08:49:47.020Z,44.22
2023-01-28T08:52:14.082Z,44.37
2023-01-28T08:54:40.578Z,44.33
2023-01-28T08:57:07.107Z,44.37
2023-01-28T08:59:33.553Z,43.24
2023-01-28T09:02:00.068Z,42.74
2023-01-28T09:04:26.623Z,42.42
2023-01-28T09:06:54.392Z,42.06
2023-01-28T09:09:20.936Z,42.62
2023-01-28T09:11:47.427Z,43.13
2023-01-28T09:14:13.941Z,42.68
2023-01-28T09:16:40.431Z,43.23
2023-01-28T09:19:06.913Z,42.98
2023-01-28T09:21:33.408Z,43.16
2023-01-28T09:23:59.995Z,43.35
2023-01-28T09:26:26.494Z,42.68
2023-01-28T09:28:53.039Z,42.20
2023-01-28T09:31:19.622Z,42.36
2023-01-28T09:33:47.289Z,41.91
2023-01-28T09:36:13.807Z,42.12
2023-01-28T09:38:40.292Z,42.26
2023-01-28T09:41:23.063Z,43.39
2023-01-28T09:44:25.588Z,43.58
2023-01-28T09:46:52.192Z,43.63
2023-01-28T09:49:34.969Z,42.51
2023-01-28T09:52:01.495Z,41.54
2023-01-28T09:54:43.933Z,41.48
2023-01-28T09:57:23.150Z,41.34
2023-01-28T09:59:49.931Z,40.94
2023-01-28T10:02:31.791Z,40.50
2023-01-28T10:05:07.109Z,40.15
2023-01-28T10:07:48.509Z,41.24
2023-01-28T10:10:18.540Z,41.08
2023-01-28T10:13:23.146Z,41.16
2023-01-28T10:16:05.858Z,41.31
2023-01-28T10:18:59.178Z,40.80
2023-01-28T10:21:36.500Z,40.80
2023-01-28T10:24:18.714Z,41.00
2023-01-28T10:26:45.956Z,41.50
2023-01-28T10:29:19.429Z,40.88
2023-01-28T10:32:15.988Z,40.78
2023-01-28T10:34:42.511Z,40.99
2023-01-28T10:37:13.593Z,39.99
2023-01-28T10:39:40.290Z,40.14
2023-01-28T10:42:25.097Z,40.51
2023-01-28T10:44:52.501Z,39.38
2023-01-28T10:47:31.022Z,38.89
2023-01-28T10:50:01.409Z,38.96
2023-01-28T10:52:28.011Z,38.43
2023-01-28T10:55:05.795Z,38.24
2023-01-28T10:57:41.479Z,38.84
2023-01-28T11:00:37.427Z,39.15
2023-01-28T11:03:04.424Z,39.04
2023-01-28T11:05:31.582Z,39.30
2023-01-28T11:08:10.231Z,39.42
2023-01-28T11:10:37.904Z,39.56
2023-01-28T11:13:06.158Z,40.19
2023-01-28T11:15:33.273Z,40.11
2023-01-28T11:18:08.407Z,39.35
2023-01-28T11:20:38.873Z,39.94
2023-01-28T11:23:05.537Z,39.46
2023-01-28T11:25:36.614Z,39.66
2023-01-28T11:28:14.797Z,39.64
2023-01-28T11:30:41.853Z,40.14
2023-01-28T11:33:11.166Z,41.21
2023-01-28T11:35:37.647Z,41.99
2023-01-28T11:38:17.481Z,41.13
2023-01-28T11:40:54.639Z,41.39
2023-01-28T11:43:23.208Z,41.50
2023-01-28T11:45:59.175Z,41.27
2023-01-28T11:48:50.759Z,41.39
2023-01-28T11:51:23.318Z,41.47
2023-01-28T11:54:04.122Z,41.32
2023-01-28T11:56:30.742Z,41.86
2023-01-28T11:59:23.175Z,41.12
2023-01-28T12:02:18.093Z,41.55
2023-01-28T12:04:54.834Z,42.29
2023-01-28T12:07:42.593Z,41.87
2023-01-28T12:10:36.737Z,41.21
2023-01-28T12:13:33.845Z,42.26
2023-01-28T12:16:27.808Z,41.42
2023-01-28T12:19:05.604Z,41.23
2023-01-28T12:21:38.169Z,40.98
2023-01-28T12:24:19.973Z,40.68
2023-01-28T12:26:56.999Z,39.95
2023-01-28T12:29:33.366Z,39.38
2023-01-28T12:32:18.417Z,39.37
2023-01-28T12:35:03.068Z,39.70
2023-01-28T12:37:50.702Z,39.04
2023-01-28T12:40:43.692Z,38.74
2023-01-28T12:43:27.344Z,39.05
2023-01-28T12:45:57.974Z,38.84
2023-01-28T12:48:32.296Z,40.76
2023-01-28T12:51:04.015Z,41.91
2023-01-28T12:53:42.305Z,41.03
2023-01-28T12:56:15.757Z,40.47
2023-01-28T12:58:45.138Z,39.38
2023-01-28T13:01:15.559Z,40.47
2023-01-28T13:03:56.408Z,40.57
2023-01-28T13:06:40.522Z,40.96
2023-01-28T13:09:25.703Z,40.04
2023-01-28T13:11:54.397Z,39.56
2023-01-28T13:14:25.121Z,38.66
2023-01-28T13:16:51.674Z,38.40
2023-01-28T13:19:18.129Z,38.16
2023-01-28T13:21:49.399Z,38.49
2023-01-28T13:24:16.295Z,38.33
2023-01-28T13:26:43.640Z,38.00
2023-01-28T13:29:25.974Z,37.35
2023-01-28T13:31:54.729Z,37.41
2023-01-28T13:34:36.120Z,39.72
2023-01-28T13:37:17.887Z,40.00
2023-01-28T13:39:50.640Z,40.41
2023-01-28T13:42:28.777Z,40.25
2023-01-28T13:44:56.311Z,42.08
2023-01-28T13:47:31.303Z,42.07
2023-01-28T13:50:07.401Z,40.84
2023-01-28T13:52:44.643Z,40.92
2023-01-28T13:55:11.153Z,42.03
2023-01-28T13:58:05.505Z,39.74
2023-01-28T14:00:37.920Z,40.07
2023-01-28T14:03:38.638Z,39.83
2023-01-28T14:06:32.331Z,39.51
2023-01-28T14:09:07.971Z,39.62
2023-01-28T14:11:53.469Z,39.70
2023-01-28T14:14:49.427Z,40.43
2023-01-28T14:17:44.681Z,40.41
2023-01-28T14:20:20.756Z,40.65
2023-01-28T14:22:48.757Z,40.64
2023-01-28T14:25:20.377Z,41.33
2023-01-28T14:27:51.096Z,42.97
2023-01-28T14:30:32.268Z,44.00
2023-01-28T14:32:58.852Z,44.26
2023-01-28T14:35:30.102Z,43.76
2023-01-28T14:37:57.950Z,44.14
2023-01-28T14:40:25.512Z,44.46
2023-01-28T14:42:56.274Z,43.13
2023-01-28T14:45:23.099Z,43.21
2023-01-28T14:48:01.703Z,43.20
2023-01-28T14:50:35.465Z,43.47
2023-01-28T14:53:32.853Z,42.86
2023-01-28T14:56:08.438Z,42.26
2023-01-28T14:58:57.645Z,42.91
2023-01-28T15:01:26.591Z,45.58
2023-01-28T15:03:53.431Z,44.83
2023-01-28T15:06:25.835Z,43.47
2023-01-28T15:08:52.929Z,43.88
2023-01-28T15:11:23.886Z,43.51
2023-01-28T15:13:56.343Z,43.16
2023-01-28T15:16:28.533Z,42.97
2023-01-28T15:18:56.083Z,42.71
2023-01-28T15:21:27.466Z,43.01
2023-01-28T15:23:57.563Z,44.16
2023-01-28T15:26:29.373Z,44.10
2023-01-28T15:28:56.531Z,44.10
2023-01-28T15:31:30.430Z,44.13
2023-01-28T15:34:17.835Z,44.57
2023-01-28T15:36:44.860Z,43.88
2023-01-28T15:39:16.753Z,44.19
2023-01-28T15:41:47.491Z,44.01
2023-01-28T15:44:35.525Z,44.12
2023-01-28T15:47:04.858Z,44.43
2023-01-28T15:49:35.619Z,44.14
2023-01-28T15:52:02.657Z,44.54
2023-01-28T15:54:30.545Z,45.48
2023-01-28T15:56:57.442Z,44.76
2023-01-28T15:59:31.245Z,45.39
2023-01-28T16:02:17.909Z,46.55
2023-01-28T16:04:44.527Z,45.79
2023-01-28T16:07:11.158Z,46.21
2023-01-28T16:09:37.756Z,46.18
2023-01-28T16:12:12.293Z,46.37
2023-01-28T16:14:49.957Z,47.56
2023-01-28T16:17:25.376Z,47.32
2023-01-28T16:19:59.154Z,46.94
2023-01-28T16:22:39.604Z,47.28
2023-01-28T16:25:21.267Z,47.14
2023-01-28T16:27:48.051Z,46.97
2023-01-28T16:30:15.640Z,46.90
2023-01-28T16:32:42.803Z,46.92
2023-01-28T16:35:15.568Z,46.91
2023-01-28T16:37:42.497Z,46.97
2023-01-28T16:40:11.241Z,46.92
2023-01-28T16:42:37.803Z,47.12
2023-01-28T16:45:05.143Z,47.21
2023-01-28T16:47:31.787Z,47.14
2023-01-28T16:49:58.353Z,47.56
2023-01-28T16:52:24.869Z,47.37
2023-01-28T16:54:51.363Z,47.79
2023-01-28T16:57:20.725Z,47.60
2023-01-28T16:59:47.216Z,47.66
2023-01-28T17:02:15.514Z,48.76
2023-01-28T17:04:42.295Z,48.49
2023-01-28T17:07:09.363Z,49.02
2023-01-28T17:09:35.912Z,49.53
2023-01-28T17:12:03.178Z,50.71
2023-01-28T17:14:29.758Z,50.24
2023-01-28T17:16:56.346Z,49.83
2023-01-28T17:19:22.853Z,50.34
2023-01-28T17:21:49.404Z,50.18
2023-01-28T17:24:16.108Z,50.51
2023-01-28T17:26:42.600Z,50.25
2023-01-28T17:29:09.102Z,50.14
2023-01-28T17:31:36.161Z,50.13
2023-01-28T17:34:03.046Z,49.93
2023-01-28T17:36:29.491Z,49.93
2023-01-28T17:38:56.290Z,50.10
2023-01-28T17:41:23.061Z,50.66
2023-01-28T17:43:56.172Z,50.52
2023-01-28T17:46:24.037Z,51.23
2023-01-28T17:48:50.578Z,50.76
2023-01-28T17:51:17.585Z,50.72
2023-01-28T17:53:48.806Z,50.54
2023-01-28T17:56:26.856Z,50.32
2023-01-28T17:58:55.736Z,50.67
2023-01-28T18:01:23.892Z,51.43
2023-01-28T18:03:54.026Z,51.70
2023-01-28T18:06:21.811Z,51.39
2023-01-28T18:08:48.450Z,51.60
2023-01-28T18:11:16.986Z,51.48
2023-01-28T18:13:46.118Z,51.27
2023-01-28T18:16:16.045Z,51.73
2023-01-28T18:18:42.976Z,51.50
2023-01-28T18:21:22.951Z,51.68
2023-01-28T18:23:51.857Z,52.17
2023-01-28T18:26:18.455Z,52.36
2023-01-28T18:28:44.930Z,51.80
2023-01-28T18:31:11.614Z,52.62
2023-01-28T18:33:38.271Z,52.16
2023-01-28T18:36:06.316Z,52.01
2023-01-28T18:38:33.355Z,52.68
2023-01-28T18:41:00.003Z,52.23
2023-01-28T18:43:26.685Z,52.32
2023-01-28T18:45:53.298Z,52.34
2023-01-28T18:48:19.885Z,51.80
2023-01-28T18:50:53.086Z,52.07
2023-01-28T18:53:20.255Z,51.97
2023-01-28T18:55:46.956Z,53.00
2023-01-28T18:58:13.462Z,52.51
2023-01-28T19:00:40.120Z,52.43
2023-01-28T19:03:06.643Z,52.06
2023-01-28T19:05:39.727Z,52.16
2023-01-28T19:08:07.014Z,52.25
2023-01-28T19:10:33.733Z,51.94
2023-01-28T19:13:00.282Z,51.94
2023-01-28T19:15:27.091Z,52.04
2023-01-28T19:17:53.675Z,52.64
2023-01-28T19:20:20.327Z,52.22
2023-01-28T19:22:46.897Z,51.91
2023-01-28T19:25:13.844Z,52.25
2023-01-28T19:27:40.571Z,52.24
2023-01-28T19:30:08.141Z,52.68
2023-01-28T19:32:34.953Z,53.36
2023-01-28T19:35:04.271Z,53.23
2023-01-28T19:37:30.752Z,53.32
2023-01-28T19:39:57.387Z,53.98
2023-01-28T19:42:23.950Z,54.29
2023-01-28T19:44:51.238Z,54.18
2023-01-28T19:47:18.011Z,54.88
2023-01-28T19:49:44.560Z,54.18
2023-01-28T19:52:11.159Z,53.99
2023-01-28T19:54:37.637Z,53.84
2023-01-28T19:57:04.144Z,53.74
2023-01-28T19:59:30.735Z,54.21
2023-01-28T20:01:57.299Z,53.62
2023-01-28T20:04:24.538Z,53.57
2023-01-28T20:06:51.074Z,53.19
2023-01-28T20:09:20.012Z,53.21
2023-01-28T20:11:46.584Z,53.00
2023-01-28T20:14:14.953Z,53.85
2023-01-28T20:16:42.217Z,53.07
2023-01-28T20:19:14.459Z,52.98
2023-01-28T20:21:41.033Z,53.00
2023-01-28T20:24:07.899Z,52.99
2023-01-28T20:26:37.262Z,52.50
2023-01-28T20:29:09.584Z,52.16
2023-01-28T20:31:38.593Z,53.46
2023-01-28T20:34:05.860Z,53.32
2023-01-28T20:36:32.411Z,53.47
2023-01-28T20:38:59.280Z,53.29
2023-01-28T20:41:27.029Z,53.77
2023-01-28T20:43:54.995Z,53.24
2023-01-28T20:46:27.787Z,53.19
2023-01-28T20:48:56.388Z,53.24
2023-01-28T20:51:27.933Z,53.71
2023-01-28T20:53:55.031Z,53.15
2023-01-28T20:56:23.059Z,52.97
2023-01-28T20:58:55.006Z,53.14
2023-01-28T21:01:24.080Z,53.46
2023-01-28T21:03:51.192Z,53.87
2023-01-28T21:06:18.367Z,53.58
2023-01-28T21:08:45.013Z,53.09
2023-01-28T21:11:12.096Z,53.56
2023-01-28T21:13:38.680Z,54.23
2023-01-28T21:16:05.953Z,54.22
2023-01-28T21:18:32.516Z,53.90
2023-01-28T21:21:04.512Z,53.68
2023-01-28T21:23:31.672Z,54.77
2023-01-28T21:26:01.923Z,54.01
2023-01-28T21:28:28.503Z,54.70
2023-01-28T21:30:55.089Z,55.98
2023-01-28T21:33:21.588Z,57.59
2023-01-28T21:35:48.104Z,57.10
2023-01-28T21:38:14.585Z,55.29
2023-01-28T21:40:41.281Z,56.57
2023-01-28T21:43:07.734Z,55.62
2023-01-28T21:45:34.365Z,55.77
2023-01-28T21:48:00.995Z,56.90
2023-01-28T21:50:27.550Z,56.01
2023-01-28T21:52:54.261Z,55.87
2023-01-28T21:55:20.802Z,55.44
2023-01-28T21:57:47.330Z,55.04
2023-01-28T22:00:14.801Z,54.94
2023-01-28T22:02:41.770Z,54.09
2023-01-28T22:05:08.438Z,54.16
2023-01-28T22:07:34.922Z,53.94
2023-01-28T22:10:01.523Z,53.49
2023-01-28T22:12:28.376Z,53.64
2023-01-28T22:14:54.907Z,53.04
2023-01-28T22:17:21.614Z,53.08
2023-01-28T22:19:48.247Z,52.93
2023-01-28T22:22:16.008Z,53.12
2023-01-28T22:24:42.581Z,53.10
2023-01-28T22:27:09.178Z,53.21
2023-01-28T22:29:35.689Z,52.72
2023-01-28T22:32:04.680Z,52.63
2023-01-28T22:34:32.314Z,52.62
2023-01-28T22:36:58.921Z,52.72
2023-01-28T22:39:25.431Z,52.57
2023-01-28T22:41:51.997Z,52.62
2023-01-28T22:44:19.888Z,52.75
2023-01-28T22:46:47.183Z,53.61
2023-01-28T22:49:15.202Z,53.67
2023-01-28T22:51:42.103Z,53.22
2023-01-28T22:54:11.281Z,52.71
2023-01-28T22:56:38.306Z,52.70
2023-01-28T22:59:04.885Z,53.58
2023-01-28T23:01:31.625Z,53.36
2023-01-28T23:03:58.454Z,52.87
2023-01-28T23:06:26.609Z,53.19
2023-01-28T23:08:54.482Z,53.19
2023-01-28T23:11:27.653Z,53.78
2023-01-28T23:14:15.178Z,53.95
2023-01-28T23:17:00.258Z,53.80
2023-01-28T23:19:45.460Z,53.20
2023-01-28T23:22:32.354Z,53.88
2023-01-28T23:24:58.915Z,53.41
2023-01-28T23:27:26.040Z,54.22
2023-01-28T23:29:52.780Z,54.13
2023-01-28T23:32:20.273Z,53.64
2023-01-28T23:34:46.724Z,53.61
2023-01-28T23:37:13.509Z,53.86
2023-01-28T23:39:40.706Z,53.45
2023-01-28T23:42:14.527Z,54.45
2023-01-28T23:44:41.059Z,54.14
2023-01-28T23:47:07.804Z,54.48
2023-01-28T23:49:34.418Z,54.25
2023-01-28T23:52:01.395Z,54.08
2023-01-28T23:54:28.114Z,53.67
2023-01-28T23:56:54.575Z,54.20
2023-01-28T23:59:21.473Z,53.50
